Time;durP1;ratioP1;P1;durP2;ratioP2;P2;SDS_P1;SDS_P2;PMS_P1;PMS_P2;Temp;Humidity;BMP_temperature;BMP_pressure;BME280_temperature;BME280_humidity;BME280_pressure;Samples;Min_cycle;Max_cycle;Signal;HPM_P1;HPM_P2
2022/10/10 00:02:08;;;;;;;1.73;0.90;;;;;;;;;;10459613;28;20222;-69
2022/10/10 00:07:09;;;;;;;4.65;0.85;;;;;;;;;;10460682;28;20215;-69
2022/10/10 00:12:10;;;;;;;0.88;0.82;;;;;;;;;;10455751;28;20217;-69
2022/10/10 00:17:11;;;;;;;2.95;0.63;;;;;;;;;;10456084;28;20229;-69
2022/10/10 00:22:12;;;;;;;4.18;0.90;;;;;;;;;;10457435;28;20238;-69
2022/10/10 00:27:14;;;;;;;0.52;0.50;;;;;;;;;;10456356;28;20375;-69
2022/10/10 00:32:15;;;;;;;1.90;0.90;;;;;;;;;;10466979;28;20214;-69
2022/10/10 00:37:16;;;;;;;2.53;0.80;;;;;;;;;;10463093;28;20321;-69
2022/10/10 00:42:17;;;;;;;0.50;0.50;;;;;;;;;;10467624;28;20257;-69
2022/10/10 00:47:19;;;;;;;0.55;0.55;;;;;;;;;;10465810;28;20241;-68
2022/10/10 00:52:20;;;;;;;0.98;0.98;;;;;;;;;;10468928;28;20233;-68
2022/10/10 00:57:21;;;;;;;0.82;0.50;;;;;;;;;;10462472;28;20224;-67
2022/10/10 01:02:22;;;;;;;0.98;0.75;;;;;;;;;;10466677;28;20226;-68
2022/10/10 01:07:25;;;;;;;0.88;0.88;;;;;;;;;;10466837;28;20267;-68
2022/10/10 01:12:31;;;;;;;2.25;0.77;;;;;;;;;;10465941;28;20224;-68
2022/10/10 01:17:39;;;;;;;0.75;0.75;;;;;;;;;;10464869;28;20234;-68
2022/10/10 01:22:49;;;;;;;2.53;0.90;;;;;;;;;;10468097;28;20917;-69
2022/10/10 01:28:13;;;;;;;0.85;0.70;;;;;;;;;;10462168;28;20578;-69
2022/10/10 01:33:16;;;;;;;3.78;0.73;;;;;;;;;;10431505;28;20649;-69
2022/10/10 01:38:20;;;;;;;2.08;0.60;;;;;;;;;;10459433;28;20215;-69
2022/10/10 01:43:23;;;;;;;1.63;0.75;;;;;;;;;;10457620;28;21104;-69
2022/10/10 01:48:26;;;;;;;1.40;0.70;;;;;;;;;;10460321;28;20245;-69
2022/10/10 01:53:47;;;;;;;0.50;0.50;;;;;;;;;;10460081;28;20631;-70
2022/10/10 01:59:09;;;;;;;1.00;0.63;;;;;;;;;;10456807;28;20231;-69
2022/10/10 02:04:13;;;;;;;1.40;1.30;;;;;;;;;;10457450;28;20248;-70
2022/10/10 02:09:18;;;;;;;1.02;1.02;;;;;;;;;;10458656;28;20288;-69
2022/10/10 02:14:22;;;;;;;2.90;1.27;;;;;;;;;;10459628;28;20636;-68
2022/10/10 02:19:24;;;;;;;0.70;0.65;;;;;;;;;;10458662;28;20288;-69
2022/10/10 02:24:25;;;;;;;0.70;0.70;;;;;;;;;;10456454;28;20333;-69
2022/10/10 02:29:28;;;;;;;1.38;1.27;;;;;;;;;;10461506;28;20218;-69
2022/10/10 02:34:32;;;;;;;3.83;0.93;;;;;;;;;;10459062;28;20633;-69
2022/10/10 02:39:36;;;;;;;5.68;0.85;;;;;;;;;;10458604;28;20783;-69
2022/10/10 02:44:38;;;;;;;2.35;1.00;;;;;;;;;;10457774;28;20237;-69
2022/10/10 02:49:39;;;;;;;1.67;0.88;;;;;;;;;;10458784;28;20639;-70
2022/10/10 02:54:40;;;;;;;1.23;0.90;;;;;;;;;;10452179;28;20215;-69
2022/10/10 02:59:41;;;;;;;3.40;0.85;;;;;;;;;;10457307;28;20284;-69
2022/10/10 03:04:43;;;;;;;0.98;0.70;;;;;;;;;;10459545;28;20213;-69
2022/10/10 03:09:44;;;;;;;3.88;0.90;;;;;;;;;;10460460;28;20214;-70
2022/10/10 03:14:45;;;;;;;2.15;1.10;;;;;;;;;;10456411;28;20683;-69
2022/10/10 03:19:46;;;;;;;6.20;1.13;;;;;;;;;;10459474;28;20218;-70
2022/10/10 03:24:48;;;;;;;0.82;0.75;;;;;;;;;;10459972;28;20214;-70
2022/10/10 03:29:49;;;;;;;3.42;1.10;;;;;;;;;;10460769;28;20230;-70
2022/10/10 03:34:50;;;;;;;4.00;1.25;;;;;;;;;;10461605;28;20304;-70
2022/10/10 03:39:51;;;;;;;1.30;0.90;;;;;;;;;;10460800;28;20214;-70
2022/10/10 03:44:52;;;;;;;0.70;0.70;;;;;;;;;;10460522;28;20237;-70
2022/10/10 03:49:53;;;;;;;0.50;0.50;;;;;;;;;;10457846;28;20226;-70
2022/10/10 03:54:54;;;;;;;1.35;0.90;;;;;;;;;;10458385;28;20295;-70
2022/10/10 03:59:55;;;;;;;2.47;1.02;;;;;;;;;;10457349;28;20279;-70
2022/10/10 04:04:56;;;;;;;2.60;1.10;;;;;;;;;;10459959;28;20238;-70
2022/10/10 04:09:57;;;;;;;1.00;1.00;;;;;;;;;;10447950;28;20309;-70
2022/10/10 04:14:58;;;;;;;5.13;1.20;;;;;;;;;;10464425;28;20218;-70
2022/10/10 04:19:59;;;;;;;3.05;0.93;;;;;;;;;;10464604;28;20269;-70
2022/10/10 04:25:01;;;;;;;1.13;0.85;;;;;;;;;;10464814;28;20214;-70
2022/10/10 04:30:02;;;;;;;1.75;1.00;;;;;;;;;;10468943;28;20324;-70
2022/10/10 04:35:03;;;;;;;1.00;0.80;;;;;;;;;;10464058;28;20221;-70
2022/10/10 04:40:04;;;;;;;2.50;1.10;;;;;;;;;;10455110;28;20796;-70
2022/10/10 04:45:06;;;;;;;1.15;0.93;;;;;;;;;;10458543;28;20234;-70
2022/10/10 04:50:07;;;;;;;1.33;1.23;;;;;;;;;;10450482;28;20193;-70
2022/10/10 04:55:08;;;;;;;1.48;0.75;;;;;;;;;;10454580;28;20342;-70
2022/10/10 05:00:10;;;;;;;1.08;0.98;;;;;;;;;;10462705;28;20222;-70
2022/10/10 05:05:11;;;;;;;0.80;0.80;;;;;;;;;;10457885;28;21367;-70
2022/10/10 05:10:12;;;;;;;5.60;1.40;;;;;;;;;;10456220;28;20190;-70
2022/10/10 05:15:13;;;;;;;5.05;1.00;;;;;;;;;;10438793;28;20210;-70
2022/10/10 05:20:14;;;;;;;4.80;0.95;;;;;;;;;;10456520;28;20273;-70
2022/10/10 05:25:15;;;;;;;1.30;1.02;;;;;;;;;;10457922;28;20537;-70
2022/10/10 05:30:16;;;;;;;2.70;0.82;;;;;;;;;;10462009;28;20202;-70
2022/10/10 05:35:18;;;;;;;0.98;0.98;;;;;;;;;;10459723;28;20197;-70
2022/10/10 05:40:19;;;;;;;1.77;1.08;;;;;;;;;;10457538;28;20301;-70
2022/10/10 05:45:20;;;;;;;0.80;0.80;;;;;;;;;;10452517;28;20230;-70
2022/10/10 05:50:28;;;;;;;0.82;0.73;;;;;;;;;;10454361;28;20194;-69
2022/10/10 05:55:29;;;;;;;1.50;1.35;;;;;;;;;;10452254;28;20268;-70
2022/10/10 06:00:33;;;;;;;1.38;1.30;;;;;;;;;;10456756;28;21275;-70
2022/10/10 06:05:36;;;;;;;1.20;1.10;;;;;;;;;;10462880;28;20230;-69
2022/10/10 06:10:38;;;;;;;2.65;1.00;;;;;;;;;;10455221;28;20226;-69
2022/10/10 06:15:40;;;;;;;0.65;0.65;;;;;;;;;;10454753;28;20222;-69
2022/10/10 06:20:41;;;;;;;4.18;1.40;;;;;;;;;;10455443;28;20280;-69
2022/10/10 06:25:42;;;;;;;1.60;1.50;;;;;;;;;;10450368;28;20211;-67
2022/10/10 06:30:44;;;;;;;2.25;1.38;;;;;;;;;;10452861;28;20945;-67
2022/10/10 06:35:47;;;;;;;1.52;1.42;;;;;;;;;;10457686;28;20237;-67
2022/10/10 06:40:48;;;;;;;1.20;1.20;;;;;;;;;;10455454;28;20351;-68
2022/10/10 06:45:50;;;;;;;3.20;1.70;;;;;;;;;;10452398;28;20260;-67
2022/10/10 06:51:08;;;;;;;3.13;1.60;;;;;;;;;;10452200;28;20597;-68
2022/10/10 06:56:16;;;;;;;1.60;1.50;;;;;;;;;;10451026;28;20229;-68
2022/10/10 07:01:18;;;;;;;1.40;1.33;;;;;;;;;;10446056;28;20594;-68
2022/10/10 07:06:19;;;;;;;1.73;1.30;;;;;;;;;;10455976;28;20227;-68
2022/10/10 07:11:21;;;;;;;2.95;2.10;;;;;;;;;;10451284;28;20976;-68
2022/10/10 07:16:22;;;;;;;1.80;1.55;;;;;;;;;;10448069;28;20878;-69
2022/10/10 07:21:23;;;;;;;1.70;1.58;;;;;;;;;;10453053;28;20670;-68
2022/10/10 07:26:27;;;;;;;4.22;2.47;;;;;;;;;;10460950;28;20271;-69
2022/10/10 07:31:28;;;;;;;3.30;2.13;;;;;;;;;;10455566;28;20593;-69
2022/10/10 07:36:29;;;;;;;3.38;2.50;;;;;;;;;;10453102;28;20300;-68
2022/10/10 07:41:30;;;;;;;3.33;2.20;;;;;;;;;;10459352;28;20829;-69
2022/10/10 07:46:32;;;;;;;2.42;2.17;;;;;;;;;;10462251;28;20240;-69
2022/10/10 07:51:33;;;;;;;5.68;2.63;;;;;;;;;;10456894;28;20226;-69
2022/10/10 07:56:34;;;;;;;4.50;2.90;;;;;;;;;;10456479;28;20261;-69
2022/10/10 08:01:35;;;;;;;4.68;1.77;;;;;;;;;;10460501;28;20248;-69
2022/10/10 08:06:36;;;;;;;3.20;2.38;;;;;;;;;;10463886;28;20222;-69
2022/10/10 08:11:37;;;;;;;2.25;1.80;;;;;;;;;;10462213;28;20712;-68
2022/10/10 08:16:39;;;;;;;4.22;1.90;;;;;;;;;;10455973;28;20230;-69
2022/10/10 08:21:40;;;;;;;2.20;2.00;;;;;;;;;;10451598;28;20273;-69
2022/10/10 08:26:41;;;;;;;3.03;2.03;;;;;;;;;;10456197;28;22235;-69
2022/10/10 08:31:42;;;;;;;5.47;1.83;;;;;;;;;;10457940;28;21273;-69
2022/10/10 08:36:43;;;;;;;2.80;1.83;;;;;;;;;;10456427;28;20211;-68
2022/10/10 08:41:50;;;;;;;4.53;2.08;;;;;;;;;;10437378;28;20804;-69
2022/10/10 08:47:01;;;;;;;1.90;1.80;;;;;;;;;;10455155;28;20242;-69
2022/10/10 08:52:06;;;;;;;1.80;1.70;;;;;;;;;;10451179;28;20214;-68
2022/10/10 08:57:13;;;;;;;3.28;1.73;;;;;;;;;;10456813;28;20214;-69
2022/10/10 09:02:27;;;;;;;2.30;1.45;;;;;;;;;;10459545;28;20218;-69
2022/10/10 09:07:34;;;;;;;3.88;1.50;;;;;;;;;;10453839;28;20214;-69
2022/10/10 09:12:54;;;;;;;6.50;2.42;;;;;;;;;;10454578;28;20214;-69
2022/10/10 09:17:58;;;;;;;1.98;1.85;;;;;;;;;;10454442;28;20252;-69
2022/10/10 09:23:02;;;;;;;4.30;1.77;;;;;;;;;;10453335;28;20225;-69
2022/10/10 09:28:15;;;;;;;6.03;1.42;;;;;;;;;;10457385;28;20222;-67
2022/10/10 09:33:16;;;;;;;1.85;0.90;;;;;;;;;;10451623;28;20229;-69
2022/10/10 09:38:29;;;;;;;1.95;1.17;;;;;;;;;;10446384;28;21068;-69
2022/10/10 09:43:33;;;;;;;2.47;1.50;;;;;;;;;;10448708;28;21074;-69
2022/10/10 09:48:36;;;;;;;2.10;1.27;;;;;;;;;;10448462;28;20210;-69
2022/10/10 09:53:37;;;;;;;2.22;1.45;;;;;;;;;;10446256;28;20226;-69
2022/10/10 09:58:42;;;;;;;3.67;1.30;;;;;;;;;;10454215;28;20245;-69
2022/10/10 10:03:44;;;;;;;1.25;1.10;;;;;;;;;;10456321;28;20214;-69
2022/10/10 10:08:45;;;;;;;2.30;1.27;;;;;;;;;;10458014;28;20309;-70
2022/10/10 10:13:53;;;;;;;0.95;0.95;;;;;;;;;;10453878;28;20226;-70
2022/10/10 10:18:54;;;;;;;1.75;0.70;;;;;;;;;;10457283;28;20301;-70
2022/10/10 10:24:14;;;;;;;0.77;0.77;;;;;;;;;;10449495;28;20236;-69
2022/10/10 10:29:27;;;;;;;0.82;0.80;;;;;;;;;;10452312;28;20667;-70
2022/10/10 10:34:37;;;;;;;1.65;0.90;;;;;;;;;;10454515;28;20237;-69
2022/10/10 10:39:48;;;;;;;1.80;0.65;;;;;;;;;;10458878;28;20222;-69
2022/10/10 10:45:12;;;;;;;1.02;1.02;;;;;;;;;;10449365;28;20237;-69
2022/10/10 10:50:37;;;;;;;3.45;0.70;;;;;;;;;;10443936;28;20242;-69
2022/10/10 10:55:46;;;;;;;0.73;0.73;;;;;;;;;;10457737;28;20228;-69
2022/10/10 11:00:54;;;;;;;0.60;0.60;;;;;;;;;;10461198;28;20229;-69
2022/10/10 11:05:55;;;;;;;1.20;0.80;;;;;;;;;;10454130;28;20238;-70
2022/10/10 11:11:02;;;;;;;0.95;0.80;;;;;;;;;;10450571;28;20223;-69
2022/10/10 11:16:09;;;;;;;2.25;0.82;;;;;;;;;;10448421;28;20269;-69
2022/10/10 11:21:13;;;;;;;0.90;0.90;;;;;;;;;;10456831;28;20376;-69
2022/10/10 11:26:28;;;;;;;1.38;0.50;;;;;;;;;;10451151;28;20685;-69
2022/10/10 11:31:33;;;;;;;4.88;0.70;;;;;;;;;;10447543;28;20781;-70
2022/10/10 11:36:36;;;;;;;2.47;0.93;;;;;;;;;;10449752;28;20347;-70
2022/10/10 11:41:43;;;;;;;0.55;0.50;;;;;;;;;;10447310;28;20226;-70
2022/10/10 11:46:58;;;;;;;0.70;0.70;;;;;;;;;;10447519;28;20214;-69
2022/10/10 11:52:18;;;;;;;1.25;0.70;;;;;;;;;;10456288;28;20221;-68
2022/10/10 11:57:22;;;;;;;1.98;0.40;;;;;;;;;;10453093;28;20598;-67
2022/10/10 12:02:26;;;;;;;5.95;0.85;;;;;;;;;;10448402;28;20236;-70
2022/10/10 12:07:30;;;;;;;0.65;0.52;;;;;;;;;;10456853;28;20246;-67
2022/10/10 12:12:43;;;;;;;1.40;0.50;;;;;;;;;;10456984;28;20295;-70
2022/10/10 12:17:45;;;;;;;4.22;0.50;;;;;;;;;;10455474;28;20249;-68
2022/10/10 12:23:04;;;;;;;0.90;0.50;;;;;;;;;;10448925;28;20744;-68
2022/10/10 12:28:12;;;;;;;0.75;0.50;;;;;;;;;;10453738;28;20220;-69
2022/10/10 12:33:33;;;;;;;1.70;0.57;;;;;;;;;;10453604;28;20222;-68
2022/10/10 12:38:34;;;;;;;2.75;0.50;;;;;;;;;;10416420;28;20226;-68
2022/10/10 12:43:37;;;;;;;1.77;0.50;;;;;;;;;;10457638;28;20234;-68
2022/10/10 12:48:38;;;;;;;4.05;0.63;;;;;;;;;;10457828;28;20218;-69
2022/10/10 12:53:40;;;;;;;0.60;0.60;;;;;;;;;;10459819;28;20309;-68
2022/10/10 12:58:41;;;;;;;0.45;0.45;;;;;;;;;;10456026;28;20261;-68
2022/10/10 13:03:44;;;;;;;3.05;0.60;;;;;;;;;;10458375;28;20221;-68
2022/10/10 13:08:45;;;;;;;0.95;0.57;;;;;;;;;;10457718;28;20202;-68
2022/10/10 13:13:50;;;;;;;1.75;0.63;;;;;;;;;;10457194;28;20217;-69
2022/10/10 13:18:56;;;;;;;2.15;0.70;;;;;;;;;;10457284;28;20309;-68
2022/10/10 13:24:01;;;;;;;1.00;0.52;;;;;;;;;;10455869;28;20215;-68
2022/10/10 13:29:15;;;;;;;0.98;0.60;;;;;;;;;;10454122;28;20753;-68
2022/10/10 13:34:21;;;;;;;1.25;0.50;;;;;;;;;;10457470;28;20221;-67
2022/10/10 13:39:22;;;;;;;1.85;0.93;;;;;;;;;;10464936;28;20674;-68
2022/10/10 13:44:25;;;;;;;5.35;0.80;;;;;;;;;;10463882;28;20401;-67
2022/10/10 13:49:29;;;;;;;1.88;0.60;;;;;;;;;;10461616;28;20218;-67
2022/10/10 13:54:37;;;;;;;0.73;0.50;;;;;;;;;;10466119;28;20701;-67
2022/10/10 13:59:38;;;;;;;2.10;0.50;;;;;;;;;;10462263;28;20604;-68
2022/10/10 14:04:47;;;;;;;0.40;0.40;;;;;;;;;;10460761;28;20254;-68
2022/10/10 14:09:53;;;;;;;0.85;0.82;;;;;;;;;;10464725;28;20218;-68
2022/10/10 14:14:56;;;;;;;3.53;0.80;;;;;;;;;;10461044;28;20677;-68
2022/10/10 14:19:57;;;;;;;4.43;0.70;;;;;;;;;;10459301;28;20271;-68
2022/10/10 14:24:58;;;;;;;1.25;0.82;;;;;;;;;;10462839;28;20745;-68
2022/10/10 14:30:00;;;;;;;1.05;0.60;;;;;;;;;;10462898;28;20238;-69
2022/10/10 14:35:01;;;;;;;0.82;0.50;;;;;;;;;;10460942;28;20291;-68
2022/10/10 14:40:02;;;;;;;1.17;0.60;;;;;;;;;;10458868;28;20855;-68
2022/10/10 14:45:03;;;;;;;5.05;0.60;;;;;;;;;;10455190;28;20250;-68
2022/10/10 14:50:13;;;;;;;5.47;0.95;;;;;;;;;;10448939;28;20221;-68
2022/10/10 14:55:14;;;;;;;1.80;0.80;;;;;;;;;;10454910;28;20218;-69
2022/10/10 15:00:17;;;;;;;5.45;0.65;;;;;;;;;;10456436;28;20329;-68
2022/10/10 15:05:18;;;;;;;2.28;0.75;;;;;;;;;;10453661;28;20254;-68
2022/10/10 15:10:19;;;;;;;0.73;0.50;;;;;;;;;;10453022;28;20275;-69
2022/10/10 15:15:20;;;;;;;3.97;0.65;;;;;;;;;;10452477;28;20655;-68
2022/10/10 15:20:29;;;;;;;5.07;0.75;;;;;;;;;;10454640;28;20739;-68
2022/10/10 15:25:30;;;;;;;2.83;0.70;;;;;;;;;;10457132;28;20218;-67
2022/10/10 15:30:31;;;;;;;2.22;0.70;;;;;;;;;;10454241;28;20280;-68
2022/10/10 15:35:32;;;;;;;1.92;0.60;;;;;;;;;;10455697;28;20276;-68
2022/10/10 15:40:34;;;;;;;2.60;0.80;;;;;;;;;;10458106;28;20241;-69
2022/10/10 15:45:36;;;;;;;1.77;0.70;;;;;;;;;;10459298;28;20902;-69
2022/10/10 15:50:41;;;;;;;2.13;0.55;;;;;;;;;;10455098;28;20309;-68
2022/10/10 15:55:43;;;;;;;2.30;0.60;;;;;;;;;;10456587;28;20322;-68
2022/10/10 16:00:44;;;;;;;1.85;0.65;;;;;;;;;;10463557;28;20313;-68
2022/10/10 16:05:45;;;;;;;4.80;0.90;;;;;;;;;;10466977;28;20587;-69
2022/10/10 16:10:46;;;;;;;0.95;0.77;;;;;;;;;;10466962;28;20835;-68
2022/10/10 16:15:57;;;;;;;4.30;0.95;;;;;;;;;;10465288;28;20276;-68
2022/10/10 16:20:58;;;;;;;3.88;0.75;;;;;;;;;;10464417;28;20311;-69
2022/10/10 16:26:00;;;;;;;2.63;0.68;;;;;;;;;;10465314;28;20575;-68
2022/10/10 16:31:02;;;;;;;4.43;0.77;;;;;;;;;;10467389;28;20297;-69
2022/10/10 16:36:10;;;;;;;0.75;0.50;;;;;;;;;;10470581;28;20227;-69
2022/10/10 16:41:13;;;;;;;2.15;0.70;;;;;;;;;;10461679;28;20377;-68
2022/10/10 16:46:16;;;;;;;0.80;0.75;;;;;;;;;;10465553;28;20920;-68
2022/10/10 16:51:18;;;;;;;0.50;0.50;;;;;;;;;;10461907;28;20219;-69
2022/10/10 16:56:20;;;;;;;1.27;0.70;;;;;;;;;;10465370;28;20233;-69
2022/10/10 17:01:22;;;;;;;1.17;1.17;;;;;;;;;;10465505;28;20230;-69
2022/10/10 17:06:23;;;;;;;4.20;1.65;;;;;;;;;;10468752;28;20246;-69
2022/10/10 17:11:24;;;;;;;2.25;1.35;;;;;;;;;;10460407;28;20264;-69
2022/10/10 17:16:26;;;;;;;1.45;1.35;;;;;;;;;;10463252;28;20214;-69
2022/10/10 17:21:27;;;;;;;3.05;2.75;;;;;;;;;;10461886;28;20246;-69
2022/10/10 17:26:28;;;;;;;2.95;2.47;;;;;;;;;;10462291;28;20224;-69
2022/10/10 17:31:30;;;;;;;5.22;1.00;;;;;;;;;;10462712;28;20226;-68
2022/10/10 17:36:31;;;;;;;1.63;1.52;;;;;;;;;;10462106;28;20218;-69
2022/10/10 17:41:32;;;;;;;2.85;1.52;;;;;;;;;;10461105;28;20226;-68
2022/10/10 17:46:33;;;;;;;4.38;1.33;;;;;;;;;;10460948;28;21072;-68
2022/10/10 17:51:34;;;;;;;4.68;1.10;;;;;;;;;;10455696;28;20238;-68
2022/10/10 17:56:36;;;;;;;1.30;1.02;;;;;;;;;;10457594;28;20232;-68
2022/10/10 18:01:38;;;;;;;3.47;1.10;;;;;;;;;;10459271;28;20237;-68
2022/10/10 18:06:40;;;;;;;2.20;0.90;;;;;;;;;;10458547;28;21180;-68
2022/10/10 18:11:41;;;;;;;1.02;1.00;;;;;;;;;;10458125;28;20636;-70
2022/10/10 18:16:43;;;;;;;4.63;1.20;;;;;;;;;;10458138;28;20218;-72
2022/10/10 18:21:45;;;;;;;1.80;1.23;;;;;;;;;;10453439;28;20268;-70
2022/10/10 18:26:46;;;;;;;3.20;1.10;;;;;;;;;;10469623;28;20229;-70
2022/10/10 18:31:47;;;;;;;1.15;0.90;;;;;;;;;;10462420;28;20225;-68
2022/10/10 18:36:49;;;;;;;0.80;0.80;;;;;;;;;;10461835;28;20871;-70
2022/10/10 18:41:50;;;;;;;0.70;0.70;;;;;;;;;;10459372;28;20233;-68
2022/10/10 18:46:51;;;;;;;4.07;1.60;;;;;;;;;;10459762;28;20229;-69
2022/10/10 18:51:52;;;;;;;5.88;0.98;;;;;;;;;;10461845;28;20260;-68
2022/10/10 18:56:53;;;;;;;3.67;1.05;;;;;;;;;;10462253;28;20317;-70
2022/10/10 19:01:55;;;;;;;1.38;1.10;;;;;;;;;;10456562;28;20238;-70
2022/10/10 19:06:56;;;;;;;3.58;1.35;;;;;;;;;;10458054;28;20223;-69
2022/10/10 19:11:57;;;;;;;0.93;0.68;;;;;;;;;;10456818;28;20644;-69
2022/10/10 19:16:58;;;;;;;0.93;0.93;;;;;;;;;;10455843;28;20222;-71
2022/10/10 19:21:59;;;;;;;1.23;1.23;;;;;;;;;;10451298;28;20227;-70
2022/10/10 19:27:01;;;;;;;2.50;0.98;;;;;;;;;;10456441;28;20217;-69
2022/10/10 19:32:02;;;;;;;0.90;0.90;;;;;;;;;;10455401;28;20221;-68
2022/10/10 19:37:03;;;;;;;5.10;0.95;;;;;;;;;;10450224;28;20636;-70
2022/10/10 19:42:05;;;;;;;1.55;1.10;;;;;;;;;;10452529;28;20245;-69
2022/10/10 19:47:06;;;;;;;2.00;0.90;;;;;;;;;;10451959;28;20210;-69
2022/10/10 19:52:08;;;;;;;1.40;0.57;;;;;;;;;;10453443;28;20219;-69
2022/10/10 19:57:09;;;;;;;1.80;0.85;;;;;;;;;;10455737;28;20314;-69
2022/10/10 20:02:11;;;;;;;4.90;0.93;;;;;;;;;;10452842;28;20759;-69
2022/10/10 20:07:12;;;;;;;2.92;0.80;;;;;;;;;;10452145;28;20214;-69
2022/10/10 20:12:13;;;;;;;3.58;0.90;;;;;;;;;;10453426;28;20741;-70
2022/10/10 20:17:14;;;;;;;3.20;0.88;;;;;;;;;;10455653;28;20706;-69
2022/10/10 20:22:15;;;;;;;4.68;1.30;;;;;;;;;;10456553;28;20256;-69
2022/10/10 20:27:16;;;;;;;1.05;0.93;;;;;;;;;;10453100;28;20275;-69
2022/10/10 20:32:17;;;;;;;2.15;1.17;;;;;;;;;;10454526;28;20258;-69
2022/10/10 20:37:18;;;;;;;1.23;1.00;;;;;;;;;;10454034;28;20221;-69
2022/10/10 20:42:20;;;;;;;0.70;0.70;;;;;;;;;;10456970;28;20230;-69
2022/10/10 20:47:22;;;;;;;2.17;0.80;;;;;;;;;;10460670;28;20222;-70
2022/10/10 20:52:23;;;;;;;1.25;1.05;;;;;;;;;;10461862;28;20233;-69
2022/10/10 20:57:24;;;;;;;1.55;1.55;;;;;;;;;;10461370;28;20217;-70
2022/10/10 21:02:25;;;;;;;2.25;1.42;;;;;;;;;;10461669;28;20275;-69
2022/10/10 21:07:29;;;;;;;1.45;1.33;;;;;;;;;;10462314;28;20221;-70
2022/10/10 21:12:30;;;;;;;1.40;1.40;;;;;;;;;;10461630;28;21193;-70
2022/10/10 21:17:31;;;;;;;2.88;2.30;;;;;;;;;;10461612;28;20248;-69
2022/10/10 21:22:33;;;;;;;2.67;2.47;;;;;;;;;;10460362;28;20259;-69
2022/10/10 21:27:34;;;;;;;2.28;2.08;;;;;;;;;;10459870;28;20226;-68
2022/10/10 21:32:35;;;;;;;2.95;2.33;;;;;;;;;;10459093;28;20718;-69
2022/10/10 21:37:36;;;;;;;7.93;3.15;;;;;;;;;;10458878;28;20226;-70
2022/10/10 21:42:37;;;;;;;4.10;2.78;;;;;;;;;;10457542;28;20720;-69
2022/10/10 21:47:41;;;;;;;2.47;2.22;;;;;;;;;;10459701;28;20214;-69
2022/10/10 21:52:42;;;;;;;1.73;1.63;;;;;;;;;;10456658;28;20317;-69
2022/10/10 21:57:43;;;;;;;1.95;1.27;;;;;;;;;;10453863;28;20214;-70
2022/10/10 22:02:45;;;;;;;1.00;0.88;;;;;;;;;;10460497;28;20226;-70
2022/10/10 22:07:46;;;;;;;4.28;1.02;;;;;;;;;;10456783;28;20213;-69
2022/10/10 22:12:47;;;;;;;2.30;1.00;;;;;;;;;;10458068;28;20921;-69
2022/10/10 22:17:48;;;;;;;2.35;0.80;;;;;;;;;;10456793;28;20309;-70
2022/10/10 22:22:49;;;;;;;2.10;0.40;;;;;;;;;;10455917;28;20815;-70
2022/10/10 22:27:50;;;;;;;6.72;0.70;;;;;;;;;;10455855;28;20230;-70
2022/10/10 22:32:51;;;;;;;2.83;0.63;;;;;;;;;;10459499;28;20346;-69
2022/10/10 22:37:52;;;;;;;0.88;0.40;;;;;;;;;;10457444;28;20218;-70
2022/10/10 22:42:54;;;;;;;3.65;0.63;;;;;;;;;;10457075;28;20230;-68
2022/10/10 22:47:55;;;;;;;1.13;0.47;;;;;;;;;;10459380;28;20959;-69
2022/10/10 22:52:56;;;;;;;2.58;0.50;;;;;;;;;;10453741;28;20214;-70
2022/10/10 22:57:57;;;;;;;11.23;0.82;;;;;;;;;;10455986;28;20308;-70
2022/10/10 23:02:58;;;;;;;5.90;1.05;;;;;;;;;;10455189;28;20218;-69
2022/10/10 23:07:59;;;;;;;7.38;0.77;;;;;;;;;;10455858;28;20214;-70
2022/10/10 23:13:01;;;;;;;1.02;0.60;;;;;;;;;;10454697;28;20218;-70
2022/10/10 23:18:02;;;;;;;4.70;0.65;;;;;;;;;;10456906;28;20224;-69
2022/10/10 23:23:03;;;;;;;0.75;0.40;;;;;;;;;;10454932;28;20230;-69
2022/10/10 23:28:04;;;;;;;5.43;0.50;;;;;;;;;;10454245;28;20229;-69
2022/10/10 23:33:05;;;;;;;2.22;0.60;;;;;;;;;;10458454;28;20222;-69
2022/10/10 23:38:06;;;;;;;5.05;0.88;;;;;;;;;;10457680;28;20222;-69
2022/10/10 23:43:09;;;;;;;4.05;0.60;;;;;;;;;;10454534;28;20565;-70
2022/10/10 23:48:10;;;;;;;4.75;0.93;;;;;;;;;;10447500;28;20306;-70
2022/10/10 23:53:12;;;;;;;2.97;0.80;;;;;;;;;;10457424;28;20214;-69
2022/10/10 23:58:13;;;;;;;4.10;0.70;;;;;;;;;;10457999;28;20347;-69
